Time;durP1;ratioP1;P1;durP2;ratioP2;P2;SDS_P1;SDS_P2;PMS_P1;PMS_P2;Temp;Humidity;BMP_temperature;BMP_pressure;BME280_temperature;BME280_humidity;BME280_pressure;Samples;Min_cycle;Max_cycle;Signal;HPM_P1;HPM_P2
2022/11/05 00:10:56;;;;;;;3.35;3.05;;;;;;;;;;4938993;29;20032;-82
2022/11/05 00:19:08;;;;;;;2.70;2.60;;;;;;;;;;4904456;29;20048;-83
2022/11/05 00:27:06;;;;;;;3.58;2.50;;;;;;;;;;4923950;29;20032;-82
2022/11/05 00:29:33;;;;;;;2.65;2.55;;;;;;;;;;4926120;29;20059;-81
2022/11/05 00:31:58;;;;;;;2.58;2.38;;;;;;;;;;4907813;29;20044;-82
2022/11/05 00:34:25;;;;;;;2.38;2.28;;;;;;;;;;4935710;29;20138;-84
2022/11/05 00:36:51;;;;;;;2.33;2.22;;;;;;;;;;4940815;29;20076;-83
2022/11/05 00:39:17;;;;;;;2.35;2.22;;;;;;;;;;4939970;29;20048;-83
2022/11/05 00:44:58;;;;;;;3.38;2.03;;;;;;;;;;4939071;29;20052;-83
2022/11/05 00:49:58;;;;;;;2.40;2.30;;;;;;;;;;4936936;29;20088;-83
2022/11/05 00:53:06;;;;;;;4.05;2.85;;;;;;;;;;4954283;29;20035;-83
2022/11/05 00:55:14;;;;;;;3.90;3.30;;;;;;;;;;4932674;29;20036;-83
2022/11/05 00:57:39;;;;;;;3.25;3.00;;;;;;;;;;4938334;29;20067;-81
2022/11/05 01:00:05;;;;;;;3.63;2.85;;;;;;;;;;4933803;29;20117;-83
2022/11/05 01:02:31;;;;;;;2.90;2.70;;;;;;;;;;4936110;29;20052;-83
2022/11/05 01:04:57;;;;;;;3.00;2.80;;;;;;;;;;4936235;29;20473;-83
2022/11/05 01:07:23;;;;;;;4.40;2.80;;;;;;;;;;4933770;29;20101;-83
2022/11/05 01:09:49;;;;;;;4.20;3.30;;;;;;;;;;4918738;29;20056;-83
2022/11/05 01:12:15;;;;;;;2.38;2.28;;;;;;;;;;4933863;29;20071;-83
2022/11/05 01:14:41;;;;;;;2.80;2.70;;;;;;;;;;4931464;29;20051;-81
2022/11/05 01:17:07;;;;;;;2.72;2.58;;;;;;;;;;4929391;29;20044;-83
2022/11/05 01:19:32;;;;;;;2.72;2.53;;;;;;;;;;4929037;29;20039;-81
2022/11/05 01:21:58;;;;;;;3.38;2.60;;;;;;;;;;4929339;29;20052;-83
2022/11/05 01:24:24;;;;;;;2.70;2.60;;;;;;;;;;4936001;29;20032;-83
2022/11/05 01:26:50;;;;;;;2.47;2.30;;;;;;;;;;4937235;29;20416;-83
2022/11/05 01:29:16;;;;;;;2.42;2.30;;;;;;;;;;4935025;29;20080;-83
2022/11/05 01:31:42;;;;;;;2.50;2.40;;;;;;;;;;4934772;29;20035;-83
2022/11/05 01:34:08;;;;;;;2.42;2.33;;;;;;;;;;4932744;29;20028;-82
2022/11/05 01:36:34;;;;;;;2.92;2.72;;;;;;;;;;4930433;29;20048;-83
2022/11/05 01:39:00;;;;;;;3.80;2.72;;;;;;;;;;4930765;29;20596;-81
2022/11/05 01:41:26;;;;;;;3.05;2.75;;;;;;;;;;4924876;29;20528;-81
2022/11/05 01:43:53;;;;;;;2.88;2.42;;;;;;;;;;4905707;29;20040;-82
2022/11/05 01:46:39;;;;;;;2.55;2.38;;;;;;;;;;4922100;29;20047;-79
2022/11/05 01:49:25;;;;;;;2.70;2.58;;;;;;;;;;4919914;29;20071;-81
2022/11/05 01:51:51;;;;;;;2.58;2.40;;;;;;;;;;4921482;29;20056;-83
2022/11/05 01:54:17;;;;;;;3.70;3.25;;;;;;;;;;4902720;29;20032;-81
2022/11/05 01:56:48;;;;;;;4.63;2.90;;;;;;;;;;4925511;29;20119;-81
2022/11/05 01:59:15;;;;;;;3.08;2.75;;;;;;;;;;4906874;29;20070;-81
2022/11/05 02:01:41;;;;;;;2.88;2.67;;;;;;;;;;4922878;29;20059;-81
2022/11/05 02:04:18;;;;;;;2.80;2.70;;;;;;;;;;4926208;29;20040;-80
2022/11/05 02:06:47;;;;;;;2.97;2.78;;;;;;;;;;4908866;29;20055;-80
2022/11/05 02:09:20;;;;;;;3.20;3.00;;;;;;;;;;4924958;29;20068;-87
2022/11/05 02:11:46;;;;;;;4.05;3.22;;;;;;;;;;4939807;29;20032;-87
2022/11/05 02:14:12;;;;;;;2.50;2.40;;;;;;;;;;4939945;29;20080;-86
2022/11/05 02:16:39;;;;;;;3.45;3.25;;;;;;;;;;5182413;23;20082;-82
2022/11/05 02:19:06;;;;;;;3.15;2.95;;;;;;;;;;5074220;23;20056;-82
2022/11/05 02:21:49;;;;;;;3.85;3.65;;;;;;;;;;4935707;29;20052;-83
2022/11/05 02:24:18;;;;;;;3.10;2.90;;;;;;;;;;4902895;29;20032;-82
2022/11/05 02:26:50;;;;;;;2.97;2.78;;;;;;;;;;4919528;29;20024;-83
2022/11/05 02:29:49;;;;;;;3.25;3.05;;;;;;;;;;4939009;29;20024;-83
2022/11/05 02:32:15;;;;;;;3.40;3.20;;;;;;;;;;4912267;29;20080;-85
2022/11/05 02:34:59;;;;;;;3.38;3.17;;;;;;;;;;4934148;29;20603;-82
2022/11/05 02:37:39;;;;;;;4.07;3.78;;;;;;;;;;4914403;29;20111;-80
2022/11/05 02:40:04;;;;;;;3.35;3.10;;;;;;;;;;4896088;29;20040;-80
2022/11/05 02:42:33;;;;;;;3.60;3.30;;;;;;;;;;4913148;29;20059;-80
2022/11/05 02:45:03;;;;;;;3.60;3.40;;;;;;;;;;4912989;29;20043;-81
2022/11/05 02:47:29;;;;;;;4.68;4.28;;;;;;;;;;4896722;29;20427;-80
2022/11/05 02:50:04;;;;;;;4.05;3.67;;;;;;;;;;4913372;29;20036;-81
2022/11/05 02:52:39;;;;;;;3.85;3.65;;;;;;;;;;4913700;29;20618;-79
2022/11/05 02:55:08;;;;;;;3.70;3.40;;;;;;;;;;4912636;29;20509;-79
2022/11/05 02:57:35;;;;;;;4.45;4.15;;;;;;;;;;4911726;29;20028;-79
2022/11/05 03:00:02;;;;;;;4.13;3.83;;;;;;;;;;4912476;29;20067;-77
2022/11/05 03:02:29;;;;;;;3.95;3.65;;;;;;;;;;4912902;29;20563;-80
2022/11/05 03:04:55;;;;;;;3.88;3.58;;;;;;;;;;4895859;29;20042;-80
2022/11/05 03:07:27;;;;;;;4.55;4.15;;;;;;;;;;4913495;29;20040;-79
2022/11/05 03:09:59;;;;;;;7.45;4.65;;;;;;;;;;4912650;29;20067;-78
2022/11/05 03:12:32;;;;;;;5.10;4.70;;;;;;;;;;4912805;29;20127;-78
2022/11/05 03:15:04;;;;;;;4.28;3.97;;;;;;;;;;4911379;29;20032;-79
2022/11/05 03:17:34;;;;;;;5.68;5.10;;;;;;;;;;4912646;29;20131;-79
2022/11/05 03:20:00;;;;;;;4.72;4.32;;;;;;;;;;4912419;29;20063;-79
2022/11/05 03:22:27;;;;;;;6.55;5.38;;;;;;;;;;4913080;29;20405;-80
2022/11/05 03:24:54;;;;;;;4.95;4.50;;;;;;;;;;4911690;29;20036;-79
2022/11/05 03:27:25;;;;;;;4.63;4.28;;;;;;;;;;4911720;29;20497;-78
2022/11/05 03:29:53;;;;;;;4.55;4.25;;;;;;;;;;4897053;29;20040;-80
2022/11/05 03:32:19;;;;;;;4.40;4.00;;;;;;;;;;4898590;29;20548;-80
2022/11/05 03:34:46;;;;;;;5.03;4.63;;;;;;;;;;4911893;29;20043;-79
2022/11/05 03:37:12;;;;;;;4.20;3.90;;;;;;;;;;4896801;29;20044;-82
2022/11/05 03:39:39;;;;;;;3.88;3.58;;;;;;;;;;4913990;29;20481;-81
2022/11/05 03:42:06;;;;;;;3.97;3.60;;;;;;;;;;4914815;29;20048;-82
2022/11/05 03:44:33;;;;;;;3.50;3.30;;;;;;;;;;4917868;29;20515;-79
2022/11/05 03:47:05;;;;;;;4.53;4.18;;;;;;;;;;4916574;29;20044;-80
2022/11/05 03:49:35;;;;;;;4.20;3.80;;;;;;;;;;4886577;29;20036;-79
2022/11/05 03:52:08;;;;;;;4.75;4.43;;;;;;;;;;4916851;29;20040;-76
2022/11/05 03:54:34;;;;;;;4.43;3.97;;;;;;;;;;4900652;29;20062;-78
2022/11/05 03:57:32;;;;;;;4.85;4.53;;;;;;;;;;4933074;29;20047;-78
2022/11/05 03:59:58;;;;;;;5.55;4.18;;;;;;;;;;4903265;29;20051;-80
2022/11/05 04:02:24;;;;;;;5.25;4.93;;;;;;;;;;4937045;29;20048;-80
2022/11/05 04:04:51;;;;;;;4.78;4.38;;;;;;;;;;4923210;29;20036;-81
2022/11/05 04:17:05;;;;;;;5.18;4.70;;;;;;;;;;4914418;29;20063;-79
2022/11/05 04:18:16;;;;;;;4.82;4.47;;;;;;;;;;4912334;29;20108;-80
2022/11/05 04:26:11;;;;;;;4.60;3.85;;;;;;;;;;4915563;29;20043;-81
2022/11/05 04:31:21;;;;;;;4.35;4.05;;;;;;;;;;4915220;29;20107;-79
2022/11/05 04:33:47;;;;;;;5.30;3.88;;;;;;;;;;4913983;29;20040;-77
2022/11/05 04:36:12;;;;;;;7.40;4.20;;;;;;;;;;4924127;29;20043;-85
2022/11/05 04:38:38;;;;;;;4.25;3.83;;;;;;;;;;4937539;29;20336;-85
2022/11/05 04:41:14;;;;;;;4.60;4.20;;;;;;;;;;4934543;29;20039;-87
2022/11/05 04:43:40;;;;;;;4.35;3.95;;;;;;;;;;4923923;29;20225;-85
2022/11/05 04:46:06;;;;;;;5.95;5.45;;;;;;;;;;4940034;29;20066;-86
2022/11/05 04:48:32;;;;;;;4.30;4.00;;;;;;;;;;4909065;29;20054;-86
2022/11/05 04:50:58;;;;;;;7.03;6.53;;;;;;;;;;4925219;29;20044;-87
2022/11/05 04:53:24;;;;;;;5.43;5.03;;;;;;;;;;4940458;29;20092;-84
2022/11/05 04:55:50;;;;;;;4.93;4.47;;;;;;;;;;4939367;29;20016;-86
2022/11/05 04:58:16;;;;;;;4.55;4.25;;;;;;;;;;4939272;29;20044;-85
2022/11/05 05:00:42;;;;;;;4.32;4.03;;;;;;;;;;4939595;29;20016;-83
2022/11/05 05:03:08;;;;;;;5.32;4.80;;;;;;;;;;4941233;29;20055;-87
2022/11/05 05:05:34;;;;;;;5.68;5.18;;;;;;;;;;4941045;29;20020;-87
2022/11/05 05:08:00;;;;;;;5.93;4.57;;;;;;;;;;4939292;29;20064;-87
2022/11/05 05:10:27;;;;;;;7.57;4.88;;;;;;;;;;4940230;29;20051;-86
2022/11/05 05:12:53;;;;;;;4.45;4.05;;;;;;;;;;4939869;29;20044;-88
2022/11/05 05:15:18;;;;;;;5.38;4.88;;;;;;;;;;4939569;29;20056;-86
2022/11/05 05:17:48;;;;;;;4.32;3.92;;;;;;;;;;4938608;29;20142;-85
2022/11/05 05:22:59;;;;;;;4.72;4.25;;;;;;;;;;4937558;29;20052;-84
2022/11/05 05:25:25;;;;;;;4.93;4.45;;;;;;;;;;4938245;29;20107;-86
2022/11/05 05:27:51;;;;;;;4.75;4.40;;;;;;;;;;4940140;29;20023;-85
2022/11/05 05:30:17;;;;;;;6.10;4.53;;;;;;;;;;5197602;23;20063;-84
2022/11/05 05:32:43;;;;;;;5.68;5.18;;;;;;;;;;4924338;29;20021;-85
2022/11/05 05:35:09;;;;;;;7.97;7.35;;;;;;;;;;5141906;23;20055;-87
2022/11/05 05:37:34;;;;;;;7.32;6.70;;;;;;;;;;5219771;23;20056;-84
2022/11/05 05:40:00;;;;;;;5.55;5.15;;;;;;;;;;4940553;29;20047;-86
2022/11/05 05:45:18;;;;;;;6.40;5.90;;;;;;;;;;5148372;23;20047;-87
2022/11/05 05:47:44;;;;;;;4.38;4.07;;;;;;;;;;4959631;29;20020;-85
2022/11/05 05:50:10;;;;;;;5.32;4.65;;;;;;;;;;5266065;23;20082;-85
2022/11/05 05:52:36;;;;;;;5.13;4.72;;;;;;;;;;4959619;29;20044;-86
2022/11/05 05:55:02;;;;;;;5.60;5.10;;;;;;;;;;4965036;23;20051;-83
2022/11/05 05:57:28;;;;;;;5.53;5.10;;;;;;;;;;4942222;29;20019;-84
2022/11/05 05:59:54;;;;;;;4.60;4.20;;;;;;;;;;4957738;29;20055;-85
2022/11/05 06:02:21;;;;;;;5.43;5.03;;;;;;;;;;4940672;29;20048;-85
2022/11/05 06:04:47;;;;;;;4.50;4.20;;;;;;;;;;4937435;29;20064;-86
2022/11/05 06:07:13;;;;;;;5.18;4.65;;;;;;;;;;4920338;29;20016;-85
2022/11/05 06:09:39;;;;;;;4.70;4.40;;;;;;;;;;4936979;29;20095;-85
2022/11/05 06:12:04;;;;;;;6.35;4.40;;;;;;;;;;4937274;29;20028;-84
2022/11/05 06:14:30;;;;;;;7.22;4.93;;;;;;;;;;4937329;29;20032;-85
2022/11/05 06:16:56;;;;;;;4.32;4.03;;;;;;;;;;4905821;29;20036;-75
2022/11/05 06:19:22;;;;;;;4.15;3.85;;;;;;;;;;4905571;29;20113;-76
2022/11/05 06:21:48;;;;;;;4.65;4.25;;;;;;;;;;4908916;29;20048;-76
2022/11/05 06:24:13;;;;;;;3.78;3.47;;;;;;;;;;4895514;29;20032;-77
2022/11/05 06:26:42;;;;;;;5.03;4.63;;;;;;;;;;4906951;29;20544;-78
2022/11/05 06:29:09;;;;;;;5.43;3.63;;;;;;;;;;4927073;29;20471;-76
2022/11/05 06:31:35;;;;;;;3.97;3.67;;;;;;;;;;4913354;29;20036;-78
2022/11/05 06:34:01;;;;;;;4.18;3.88;;;;;;;;;;4909484;29;20110;-77
2022/11/05 06:36:27;;;;;;;4.72;3.85;;;;;;;;;;4909902;29;20495;-76
2022/11/05 06:38:53;;;;;;;2.60;2.50;;;;;;;;;;4911832;29;20027;-76
2022/11/05 06:41:18;;;;;;;3.83;3.53;;;;;;;;;;4910954;29;20131;-76
2022/11/05 06:43:44;;;;;;;4.07;3.33;;;;;;;;;;4913183;29;20036;-74
2022/11/05 06:46:11;;;;;;;4.10;3.60;;;;;;;;;;4894783;29;20508;-76
2022/11/05 06:48:37;;;;;;;3.97;3.67;;;;;;;;;;4913431;29;20039;-76
2022/11/05 06:51:03;;;;;;;4.47;4.07;;;;;;;;;;4906097;29;20047;-75
2022/11/05 06:53:29;;;;;;;4.90;4.32;;;;;;;;;;4903706;29;20171;-76
2022/11/05 06:55:55;;;;;;;3.75;3.45;;;;;;;;;;4909212;29;20047;-76
2022/11/05 06:58:21;;;;;;;2.50;2.30;;;;;;;;;;4912681;29;20036;-75
2022/11/05 07:00:46;;;;;;;3.00;2.80;;;;;;;;;;4889978;29;20040;-75
2022/11/05 07:03:12;;;;;;;3.58;3.28;;;;;;;;;;4911968;29;20052;-74
2022/11/05 07:05:39;;;;;;;4.38;3.95;;;;;;;;;;4904292;29;20036;-76
2022/11/05 07:08:05;;;;;;;3.20;3.00;;;;;;;;;;4907277;29;20040;-74
2022/11/05 07:10:31;;;;;;;2.67;2.58;;;;;;;;;;4909247;29;20518;-75
2022/11/05 07:12:56;;;;;;;2.53;2.33;;;;;;;;;;4911346;29;20465;-75
2022/11/05 07:15:22;;;;;;;3.30;3.05;;;;;;;;;;4910875;29;20032;-74
2022/11/05 07:17:48;;;;;;;3.38;2.90;;;;;;;;;;4913170;29;20040;-75
2022/11/05 07:20:14;;;;;;;3.42;3.13;;;;;;;;;;4915103;29;20044;-74
2022/11/05 07:22:40;;;;;;;2.58;2.47;;;;;;;;;;4879955;29;20135;-75
2022/11/05 07:25:06;;;;;;;3.42;2.55;;;;;;;;;;4925921;29;20648;-74
2022/11/05 07:27:36;;;;;;;2.85;2.55;;;;;;;;;;4910058;29;20115;-74
2022/11/05 07:30:02;;;;;;;3.42;2.75;;;;;;;;;;4914029;29;20044;-73
2022/11/05 07:32:29;;;;;;;3.38;3.08;;;;;;;;;;4914766;29;20044;-73
2022/11/05 07:34:55;;;;;;;3.65;3.35;;;;;;;;;;4915511;29;20753;-74
2022/11/05 07:37:21;;;;;;;3.80;3.50;;;;;;;;;;4915696;29;20046;-73
2022/11/05 07:39:47;;;;;;;2.20;2.10;;;;;;;;;;4915734;29;20058;-74
2022/11/05 07:42:12;;;;;;;2.53;2.42;;;;;;;;;;4915537;29;20055;-72
2022/11/05 07:44:39;;;;;;;3.00;2.80;;;;;;;;;;4916041;29;20043;-74
2022/11/05 07:47:04;;;;;;;6.03;3.05;;;;;;;;;;4915595;29;20040;-73
2022/11/05 07:49:30;;;;;;;3.42;3.22;;;;;;;;;;4915863;29;20444;-74
2022/11/05 07:51:56;;;;;;;2.60;2.40;;;;;;;;;;4914869;29;20417;-73
2022/11/05 07:54:25;;;;;;;3.55;2.70;;;;;;;;;;4915405;29;20146;-74
2022/11/05 07:56:52;;;;;;;3.10;2.90;;;;;;;;;;4914326;29;20420;-74
2022/11/05 07:59:17;;;;;;;3.10;2.90;;;;;;;;;;4914438;29;20519;-74
2022/11/05 08:01:43;;;;;;;3.40;2.85;;;;;;;;;;4914322;29;20075;-74
2022/11/05 08:04:09;;;;;;;4.30;2.85;;;;;;;;;;4915554;29;20047;-73
2022/11/05 08:06:35;;;;;;;3.47;3.17;;;;;;;;;;4916895;29;20036;-73
2022/11/05 08:09:01;;;;;;;3.80;3.28;;;;;;;;;;4915904;29;20032;-74
2022/11/05 08:11:27;;;;;;;3.42;3.08;;;;;;;;;;4915066;29;20050;-74
2022/11/05 08:13:52;;;;;;;2.50;2.40;;;;;;;;;;4915458;29;20579;-74
2022/11/05 08:16:18;;;;;;;19.13;5.28;;;;;;;;;;4913957;29;20099;-74
2022/11/05 08:18:45;;;;;;;6.60;4.00;;;;;;;;;;4914788;29;20158;-74
2022/11/05 08:21:11;;;;;;;3.88;3.53;;;;;;;;;;4913671;29;20048;-73
2022/11/05 08:23:38;;;;;;;8.10;4.43;;;;;;;;;;4913674;29;20046;-74
2022/11/05 08:26:04;;;;;;;3.25;3.00;;;;;;;;;;4913810;29;20036;-74
2022/11/05 08:28:29;;;;;;;7.03;3.75;;;;;;;;;;4913732;29;20036;-73
2022/11/05 08:30:55;;;;;;;5.53;2.95;;;;;;;;;;4914786;29;20496;-73
2022/11/05 08:33:21;;;;;;;4.57;3.10;;;;;;;;;;4915105;29;20036;-74
2022/11/05 08:35:47;;;;;;;8.98;3.35;;;;;;;;;;4915267;29;20036;-74
2022/11/05 08:38:14;;;;;;;3.60;3.30;;;;;;;;;;4912964;29;20036;-75
2022/11/05 08:40:40;;;;;;;3.75;3.30;;;;;;;;;;4910960;29;20040;-74
2022/11/05 08:43:06;;;;;;;4.80;3.10;;;;;;;;;;4899957;29;20051;-73
2022/11/05 08:45:32;;;;;;;3.65;3.35;;;;;;;;;;4890429;29;20029;-73
2022/11/05 08:48:01;;;;;;;3.20;2.97;;;;;;;;;;4913277;29;20378;-73
2022/11/05 08:50:27;;;;;;;10.98;4.63;;;;;;;;;;4909532;29;20036;-74
2022/11/05 08:52:53;;;;;;;2.20;2.10;;;;;;;;;;4907624;29;20028;-74
2022/11/05 08:55:19;;;;;;;6.72;3.00;;;;;;;;;;4911202;29;20162;-74
2022/11/05 08:57:45;;;;;;;2.97;2.75;;;;;;;;;;4909229;29;20028;-74
2022/11/05 09:00:11;;;;;;;3.60;2.70;;;;;;;;;;4909914;29;20040;-75
2022/11/05 09:02:41;;;;;;;3.25;3.05;;;;;;;;;;4921023;29;20094;-73
2022/11/05 09:05:07;;;;;;;3.92;3.35;;;;;;;;;;4905652;29;20047;-73
2022/11/05 09:07:33;;;;;;;3.50;3.25;;;;;;;;;;4912679;29;21505;-74
2022/11/05 09:10:00;;;;;;;6.97;5.88;;;;;;;;;;4906260;29;20120;-79
2022/11/05 09:12:29;;;;;;;4.03;3.60;;;;;;;;;;4913055;29;20370;-73
2022/11/05 09:14:54;;;;;;;3.17;2.97;;;;;;;;;;4880806;29;20035;-73
2022/11/05 09:17:21;;;;;;;2.80;2.70;;;;;;;;;;4911082;29;20497;-73
2022/11/05 09:19:46;;;;;;;3.10;2.90;;;;;;;;;;4912925;29;20039;-74
2022/11/05 09:22:13;;;;;;;3.95;2.90;;;;;;;;;;4911436;29;20056;-73
2022/11/05 09:24:41;;;;;;;4.63;2.83;;;;;;;;;;4912978;29;20060;-74
2022/11/05 09:27:09;;;;;;;3.00;2.80;;;;;;;;;;4904646;29;20134;-74
2022/11/05 09:29:35;;;;;;;2.65;2.45;;;;;;;;;;4912029;29;20039;-74
2022/11/05 09:32:01;;;;;;;3.05;2.85;;;;;;;;;;4910953;29;20536;-75
2022/11/05 09:34:27;;;;;;;3.10;2.90;;;;;;;;;;4912579;29;20067;-74
2022/11/05 09:36:53;;;;;;;2.92;2.80;;;;;;;;;;4912949;29;20054;-74
2022/11/05 09:39:18;;;;;;;2.97;2.60;;;;;;;;;;4910118;29;20036;-74
2022/11/05 09:41:46;;;;;;;3.33;3.03;;;;;;;;;;4894565;29;20559;-74
2022/11/05 09:44:16;;;;;;;2.83;2.67;;;;;;;;;;4912537;29;20067;-74
2022/11/05 09:46:48;;;;;;;3.15;2.85;;;;;;;;;;4911110;29;20409;-73
2022/11/05 09:49:40;;;;;;;2.85;2.65;;;;;;;;;;4916870;29;20040;-73
2022/11/05 09:52:11;;;;;;;4.88;3.40;;;;;;;;;;4912705;29;20039;-73
2022/11/05 09:54:37;;;;;;;8.25;7.45;;;;;;;;;;4917265;29;20478;-72
2022/11/05 09:57:02;;;;;;;3.78;2.72;;;;;;;;;;4919343;29;20042;-73
2022/11/05 09:59:29;;;;;;;2.92;2.72;;;;;;;;;;4912397;29;20051;-74
2022/11/05 10:02:01;;;;;;;3.30;2.97;;;;;;;;;;4912137;29;20051;-74
2022/11/05 10:04:26;;;;;;;4.20;3.85;;;;;;;;;;4895350;29;20044;-73
2022/11/05 10:06:54;;;;;;;3.90;3.60;;;;;;;;;;4912083;29;20513;-74
2022/11/05 10:09:24;;;;;;;3.67;3.47;;;;;;;;;;4894916;29;20040;-74
2022/11/05 10:11:52;;;;;;;3.83;3.53;;;;;;;;;;4911225;29;20098;-74
2022/11/05 10:14:32;;;;;;;3.75;3.45;;;;;;;;;;4910788;29;20526;-74
2022/11/05 10:17:08;;;;;;;5.75;2.97;;;;;;;;;;4911316;29;20071;-74
2022/11/05 10:19:40;;;;;;;4.32;3.92;;;;;;;;;;4911844;29;20044;-74
2022/11/05 10:22:11;;;;;;;9.27;6.25;;;;;;;;;;4877196;29;20052;-74
2022/11/05 10:24:38;;;;;;;5.63;5.13;;;;;;;;;;4892456;29;20055;-74
2022/11/05 10:27:04;;;;;;;3.40;3.20;;;;;;;;;;4892841;29;20051;-73
2022/11/05 10:29:31;;;;;;;3.88;3.58;;;;;;;;;;4894093;29;20044;-74
2022/11/05 10:31:57;;;;;;;3.35;3.15;;;;;;;;;;4908677;29;20043;-74
2022/11/05 10:34:24;;;;;;;4.65;4.25;;;;;;;;;;4894205;29;20064;-73
2022/11/05 10:36:50;;;;;;;3.60;3.30;;;;;;;;;;4893106;29;20059;-73
2022/11/05 10:39:17;;;;;;;3.67;3.38;;;;;;;;;;4893904;29;20042;-74
2022/11/05 10:41:43;;;;;;;4.43;3.78;;;;;;;;;;4893160;29;20074;-74
2022/11/05 10:44:25;;;;;;;4.18;3.65;;;;;;;;;;4877832;29;20048;-73
2022/11/05 10:47:00;;;;;;;3.63;3.38;;;;;;;;;;4892668;29;20055;-73
2022/11/05 10:49:35;;;;;;;3.58;3.15;;;;;;;;;;4876875;29;20036;-73
2022/11/05 10:52:03;;;;;;;3.25;3.03;;;;;;;;;;4876668;29;20536;-73
2022/11/05 10:54:32;;;;;;;4.45;3.60;;;;;;;;;;4889144;29;20059;-74
2022/11/05 10:56:58;;;;;;;7.43;3.55;;;;;;;;;;4911944;29;20040;-73
2022/11/05 10:59:28;;;;;;;4.82;3.85;;;;;;;;;;4911047;29;20042;-73
2022/11/05 11:02:01;;;;;;;3.92;3.60;;;;;;;;;;4911098;29;20116;-73
2022/11/05 11:04:29;;;;;;;3.53;3.33;;;;;;;;;;4907825;29;20092;-74
2022/11/05 11:06:55;;;;;;;3.47;3.28;;;;;;;;;;4895643;29;20133;-73
2022/11/05 11:09:28;;;;;;;4.82;3.55;;;;;;;;;;4895283;29;20068;-73
2022/11/05 11:11:55;;;;;;;4.53;4.20;;;;;;;;;;4911001;29;20040;-73
2022/11/05 11:14:21;;;;;;;5.78;5.20;;;;;;;;;;4910742;29;20127;-73
2022/11/05 11:16:49;;;;;;;4.00;3.35;;;;;;;;;;4910948;29;20619;-73
2022/11/05 11:19:21;;;;;;;4.85;4.13;;;;;;;;;;4912111;29;20032;-73
2022/11/05 11:21:49;;;;;;;4.50;4.20;;;;;;;;;;4895422;29;20176;-73
2022/11/05 11:24:19;;;;;;;4.85;4.03;;;;;;;;;;4912146;29;20036;-73
2022/11/05 11:26:45;;;;;;;3.65;3.45;;;;;;;;;;4911165;29;20456;-72
2022/11/05 11:29:17;;;;;;;5.82;3.80;;;;;;;;;;4895195;29;20111;-73
2022/11/05 11:31:43;;;;;;;3.80;3.50;;;;;;;;;;4911055;29;20051;-73
2022/11/05 11:34:14;;;;;;;5.55;5.07;;;;;;;;;;4912077;29;20055;-74
2022/11/05 11:36:47;;;;;;;8.00;5.55;;;;;;;;;;4911129;29;20043;-73
2022/11/05 11:39:18;;;;;;;9.00;8.07;;;;;;;;;;4910772;29;20040;-73
2022/11/05 11:41:44;;;;;;;;;;;;;;;;;;4912390;29;20040;-73
2022/11/05 11:44:11;;;;;;;6.03;5.53;;;;;;;;;;4911954;29;19915;-72
2022/11/05 11:46:37;;;;;;;5.22;4.60;;;;;;;;;;4895311;29;20052;-73
2022/11/05 11:49:03;;;;;;;7.20;4.18;;;;;;;;;;4895483;29;20051;-73
2022/11/05 11:51:29;;;;;;;5.70;5.20;;;;;;;;;;4910506;29;20473;-73
2022/11/05 11:53:56;;;;;;;4.90;4.40;;;;;;;;;;4911842;29;20102;-73
2022/11/05 11:56:22;;;;;;;5.10;3.97;;;;;;;;;;4911780;29;20088;-73
2022/11/05 11:58:49;;;;;;;8.73;3.92;;;;;;;;;;4912020;29;20032;-73
2022/11/05 12:01:15;;;;;;;5.22;4.20;;;;;;;;;;4910323;29;20062;-74
2022/11/05 12:04:07;;;;;;;12.85;4.65;;;;;;;;;;4912001;29;20548;-74
2022/11/05 12:06:35;;;;;;;3.95;3.63;;;;;;;;;;4906181;29;20064;-74
2022/11/05 12:09:07;;;;;;;8.68;3.92;;;;;;;;;;4914290;29;20036;-73
2022/11/05 12:11:43;;;;;;;6.60;5.03;;;;;;;;;;4913834;29;20509;-73
2022/11/05 12:14:18;;;;;;;9.52;4.38;;;;;;;;;;4913050;29;20032;-73
2022/11/05 12:16:51;;;;;;;12.88;4.45;;;;;;;;;;4914118;29;20040;-73
2022/11/05 12:19:23;;;;;;;4.95;4.05;;;;;;;;;;4896980;29;20043;-74
2022/11/05 12:21:58;;;;;;;5.78;3.63;;;;;;;;;;4898114;29;20051;-73
2022/11/05 12:24:28;;;;;;;3.28;2.97;;;;;;;;;;4912896;29;20454;-74
2022/11/05 12:26:55;;;;;;;7.43;5.88;;;;;;;;;;4912767;29;20099;-74
2022/11/05 12:29:27;;;;;;;7.13;4.30;;;;;;;;;;4913556;29;20040;-74
2022/11/05 12:32:11;;;;;;;3.95;3.60;;;;;;;;;;4915132;29;20039;-74
2022/11/05 12:34:50;;;;;;;6.75;5.38;;;;;;;;;;4915886;29;20122;-74
2022/11/05 12:37:35;;;;;;;8.43;4.72;;;;;;;;;;4915048;29;20040;-74
2022/11/05 12:40:10;;;;;;;3.97;3.63;;;;;;;;;;4899833;29;20071;-74
2022/11/05 12:42:45;;;;;;;4.18;3.78;;;;;;;;;;4914435;29;20142;-73
2022/11/05 12:45:23;;;;;;;7.72;5.15;;;;;;;;;;4914467;29;20091;-73
2022/11/05 12:47:56;;;;;;;3.35;3.15;;;;;;;;;;4913459;29;20090;-74
2022/11/05 12:50:41;;;;;;;4.50;4.20;;;;;;;;;;4913175;29;20028;-74
2022/11/05 12:53:25;;;;;;;4.63;4.30;;;;;;;;;;4910462;29;20139;-74
2022/11/05 12:55:52;;;;;;;4.22;3.92;;;;;;;;;;4914862;29;20051;-73
2022/11/05 12:58:28;;;;;;;4.28;3.55;;;;;;;;;;4913721;29;20040;-73
2022/11/05 13:00:59;;;;;;;4.28;3.88;;;;;;;;;;4897362;29;20036;-73
2022/11/05 13:03:43;;;;;;;4.15;3.75;;;;;;;;;;4896927;29;20040;-73
2022/11/05 13:06:14;;;;;;;6.55;4.28;;;;;;;;;;4912459;29;20040;-73
2022/11/05 13:08:39;;;;;;;4.07;3.78;;;;;;;;;;4897289;29;20087;-73
2022/11/05 13:11:16;;;;;;;9.05;4.60;;;;;;;;;;4912823;29;20043;-73
2022/11/05 13:13:44;;;;;;;4.70;4.30;;;;;;;;;;4912648;29;20039;-72
2022/11/05 13:16:25;;;;;;;5.78;5.18;;;;;;;;;;4897019;29;20505;-73
2022/11/05 13:18:52;;;;;;;6.70;5.38;;;;;;;;;;4912835;29;20047;-73
2022/11/05 13:21:18;;;;;;;9.65;6.35;;;;;;;;;;4913208;29;20139;-73
2022/11/05 13:23:45;;;;;;;6.35;4.82;;;;;;;;;;4912721;29;20417;-73
2022/11/05 13:26:26;;;;;;;6.97;6.28;;;;;;;;;;4912408;29;20043;-73
2022/11/05 13:29:01;;;;;;;10.10;6.55;;;;;;;;;;4896907;29;20043;-72
2022/11/05 13:31:29;;;;;;;6.78;4.93;;;;;;;;;;4896315;29;20453;-73
2022/11/05 13:33:55;;;;;;;5.30;4.90;;;;;;;;;;4912481;29;20047;-73
2022/11/05 13:39:13;;;;;;;6.40;5.63;;;;;;;;;;4913572;29;20063;-73
2022/11/05 13:41:39;;;;;;;6.43;5.35;;;;;;;;;;4913258;29;20052;-73
2022/11/05 13:44:24;;;;;;;6.40;5.60;;;;;;;;;;4912152;29;20040;-72
2022/11/05 13:47:08;;;;;;;5.07;4.57;;;;;;;;;;4912096;29;20040;-73
2022/11/05 13:49:44;;;;;;;8.43;5.78;;;;;;;;;;4913277;29;20039;-73
2022/11/05 13:52:28;;;;;;;14.80;6.68;;;;;;;;;;4911514;29;20099;-72
2022/11/05 13:55:13;;;;;;;7.35;5.60;;;;;;;;;;4913226;29;20052;-72
2022/11/05 13:57:45;;;;;;;7.90;5.30;;;;;;;;;;4913346;29;20420;-73
2022/11/05 14:00:11;;;;;;;7.82;4.97;;;;;;;;;;4913867;29;20413;-73
2022/11/05 14:02:42;;;;;;;6.07;5.47;;;;;;;;;;4913086;29;20048;-73
2022/11/05 14:05:18;;;;;;;9.05;6.28;;;;;;;;;;4911890;29;20091;-72
2022/11/05 14:07:44;;;;;;;11.43;6.10;;;;;;;;;;4912145;29;20032;-71
2022/11/05 14:10:30;;;;;;;6.50;5.97;;;;;;;;;;4911719;29;20103;-73
2022/11/05 14:12:56;;;;;;;7.95;6.97;;;;;;;;;;4911648;29;20032;-73
2022/11/05 14:15:22;;;;;;;6.93;5.78;;;;;;;;;;4913516;29;20028;-72
2022/11/05 14:17:55;;;;;;;12.93;6.22;;;;;;;;;;4913400;29;20032;-73
2022/11/05 14:20:44;;;;;;;6.38;5.78;;;;;;;;;;4913426;29;20042;-73
2022/11/05 14:23:20;;;;;;;6.55;5.95;;;;;;;;;;4906411;29;20048;-75
2022/11/05 14:25:51;;;;;;;6.03;5.43;;;;;;;;;;4913060;29;20058;-73
2022/11/05 14:28:36;;;;;;;6.38;5.78;;;;;;;;;;4910909;29;20036;-73
2022/11/05 14:31:03;;;;;;;5.53;5.13;;;;;;;;;;4912275;29;20084;-73
2022/11/05 14:33:30;;;;;;;6.00;5.55;;;;;;;;;;4911602;29;20039;-73
2022/11/05 14:36:20;;;;;;;5.57;5.18;;;;;;;;;;4913036;29;20047;-73
2022/11/05 14:38:46;;;;;;;7.93;5.03;;;;;;;;;;4906874;29;20043;-73
2022/11/05 14:41:12;;;;;;;6.13;5.07;;;;;;;;;;4913593;29;20032;-73
2022/11/05 14:43:42;;;;;;;5.00;4.60;;;;;;;;;;4912984;29;20055;-73
2022/11/05 14:46:09;;;;;;;9.47;7.30;;;;;;;;;;4912310;29;20107;-73
2022/11/05 14:48:39;;;;;;;8.13;7.28;;;;;;;;;;4911864;29;20288;-75
2022/11/05 14:51:24;;;;;;;7.30;5.90;;;;;;;;;;4913490;29;20100;-73
2022/11/05 14:53:56;;;;;;;9.55;8.18;;;;;;;;;;4913855;29;20056;-73
2022/11/05 14:56:22;;;;;;;12.00;9.00;;;;;;;;;;4912263;29;20063;-73
2022/11/05 14:58:48;;;;;;;22.05;14.57;;;;;;;;;;4913041;29;20705;-73
2022/11/05 15:01:14;;;;;;;14.05;8.57;;;;;;;;;;4912076;29;20040;-73
2022/11/05 15:03:40;;;;;;;11.18;9.00;;;;;;;;;;4913915;29;20070;-73
2022/11/05 15:06:26;;;;;;;13.02;8.02;;;;;;;;;;4914698;29;20419;-73
2022/11/05 15:08:58;;;;;;;12.20;9.00;;;;;;;;;;4916482;29;20091;-73
2022/11/05 15:11:23;;;;;;;6.07;5.60;;;;;;;;;;4917571;29;20044;-72
2022/11/05 15:13:52;;;;;;;11.77;6.65;;;;;;;;;;4916757;29;20036;-73
2022/11/05 15:16:24;;;;;;;5.97;5.47;;;;;;;;;;4918658;29;20040;-74
2022/11/05 15:18:49;;;;;;;17.20;7.13;;;;;;;;;;4917790;29;20039;-74
2022/11/05 15:21:16;;;;;;;11.73;7.28;;;;;;;;;;4920419;29;20239;-74
2022/11/05 15:23:42;;;;;;;6.78;6.20;;;;;;;;;;4883578;29;20050;-74
2022/11/05 15:26:12;;;;;;;6.63;5.93;;;;;;;;;;4899767;29;20131;-74
2022/11/05 15:28:48;;;;;;;7.90;6.17;;;;;;;;;;4898513;29;20399;-74
2022/11/05 15:31:14;;;;;;;5.93;5.32;;;;;;;;;;4900072;29;20048;-73
2022/11/05 15:33:41;;;;;;;7.22;6.53;;;;;;;;;;4899655;29;20413;-74
2022/11/05 15:36:10;;;;;;;6.03;5.45;;;;;;;;;;4896108;29;20516;-74
2022/11/05 15:38:36;;;;;;;11.48;7.60;;;;;;;;;;4897348;29;20503;-74
2022/11/05 15:41:11;;;;;;;9.63;7.72;;;;;;;;;;4901344;29;20136;-74
2022/11/05 15:43:41;;;;;;;8.05;7.00;;;;;;;;;;4902109;29;20043;-74
2022/11/05 15:46:15;;;;;;;6.05;5.55;;;;;;;;;;4921862;29;20044;-74